Time,TemperatureF,DewpointF,PressureIn,WindDirection,WindDirectionDegrees,WindSpeedMPH,WindSpeedGustMPH,Humidity,HourlyPrecipIn,Conditions,Clouds,dailyrainin,SoftwareType,DateUTC
2013-06-10 00:59:00,70.9,70.9,30.01,SW,231,0.9,3.1,100,0.00,,,0.00,Meteorologica,2013-06-10 04:59:00,
2013-06-10 01:00:00,74.9,68.9,29.98,SSW,204,3.6,9.4,81,0.00,,,0.82,Meteorologica,2013-06-10 05:00:00,
2013-06-10 01:01:00,74.9,68.9,29.98,SSW,204,3.5,9.4,81,0.00,,,0.82,Meteorologica,2013-06-10 05:01:00,
2013-06-10 01:02:00,75.0,69.0,29.98,South,179,3.3,9.4,81,0.00,,,0.82,Meteorologica,2013-06-10 05:02:00,
2013-06-10 01:03:00,75.0,69.1,29.98,SW,218,3.4,9.4,81,0.00,,,0.82,Meteorologica,2013-06-10 05:03:00,
2013-06-10 01:04:00,70.7,70.7,30.01,SW,235,2.9,4.5,100,0.00,,,0.00,Meteorologica,2013-06-10 05:04:00,
2013-06-10 01:05:00,75.1,69.1,29.98,SW,215,2.1,7.4,81,0.00,,,0.82,Meteorologica,2013-06-10 05:05:00,
2013-06-10 01:06:00,75.0,69.1,29.98,WSW,247,1.7,7.4,81,0.00,,,0.82,Meteorologica,2013-06-10 05:06:00,
2013-06-10 01:07:00,75.2,69.6,29.98,NW,313,0.9,7.4,82,0.00,,,0.82,Meteorologica,2013-06-10 05:07:00,
2013-06-10 01:08:00,74.9,69.3,29.99,NNE,27,1.8,7.4,83,0.00,,,0.82,Meteorologica,2013-06-10 05:08:00,
2013-06-10 01:09:00,70.9,70.9,30.01,SSW,211,1.1,7.6,100,0.00,,,0.00,Meteorologica,2013-06-10 05:09:00,
2013-06-10 01:10:00,74.9,70.9,30.01,NW,311,2.8,4.3,87,0.02,,,0.84,Meteorologica,2013-06-10 05:10:00,
2013-06-10 01:11:00,74.7,72.1,30.01,East,80,2.4,4.3,91,0.04,,,0.86,Meteorologica,2013-06-10 05:11:00,
2013-06-10 01:12:00,74.8,73.5,30.01,SSE,151,1.5,4.3,95,0.07,,,0.89,Meteorologica,2013-06-10 05:12:00,
2013-06-10 01:13:00,74.6,74.6,30.00,SW,215,2.1,4.3,100,0.10,,,0.92,Meteorologica,2013-06-10 05:13:00,
2013-06-10 01:14:00,70.7,70.7,30.01,SSW,207,2.8,6.3,100,0.00,,,0.00,Meteorologica,2013-06-10 05:14:00,
2013-06-10 01:15:00,74.5,74.5,30.00,WSW,242,1.9,3.7,100,0.10,,,0.92,Meteorologica,2013-06-10 05:15:00,
2013-06-10 01:16:00,74.3,74.3,30.00,SW,218,2.1,3.7,100,0.11,,,0.93,Meteorologica,2013-06-10 05:16:00,
2013-06-10 01:17:00,74.2,74.2,30.00,SW,218,0.0,3.7,100,0.11,,,0.93,Meteorologica,2013-06-10 05:17:00,
2013-06-10 01:18:00,74.1,74.1,30.00,SW,218,0.0,3.7,100,0.11,,,0.93,Meteorologica,2013-06-10 05:18:00,
2013-06-10 01:19:00,70.7,70.7,30.01,South,190,3.1,6.8,100,0.00,,,0.00,Meteorologica,2013-06-10 05:19:00,
2013-06-10 01:20:00,73.8,73.8,30.00,SW,218,0.0,3.5,100,0.11,,,0.93,Meteorologica,2013-06-10 05:20:00,
2013-06-10 01:21:00,73.6,73.6,30.00,SW,218,0.0,3.5,100,0.11,,,0.93,Meteorologica,2013-06-10 05:21:00,
2013-06-10 01:22:00,73.5,73.5,30.00,SW,218,0.0,3.5,100,0.11,,,0.93,Meteorologica,2013-06-10 05:22:00,
2013-06-10 01:23:00,73.4,73.4,30.00,SW,218,0.0,3.5,100,0.11,,,0.93,Meteorologica,2013-06-10 05:23:00,
2013-06-10 01:24:00,70.9,70.9,30.00,SW,214,2.9,4.8,100,0.00,,,0.00,Meteorologica,2013-06-10 05:24:00,
2013-06-10 01:25:00,73.1,73.1,30.00,SW,218,0.0,0.0,100,0.11,,,0.93,Meteorologica,2013-06-10 05:25:00,
2013-06-10 01:26:00,73.0,73.0,29.99,SW,218,0.0,0.0,100,0.11,,,0.93,Meteorologica,2013-06-10 05:26:00,
2013-06-10 01:27:00,72.9,72.9,29.99,SW,218,0.0,0.0,100,0.11,,,0.93,Meteorologica,2013-06-10 05:27:00,
2013-06-10 01:28:00,72.9,72.9,29.99,SW,218,0.0,0.0,100,0.11,,,0.93,Meteorologica,2013-06-10 05:28:00,
2013-06-10 01:29:00,70.8,70.8,30.00,South,187,1.2,8.1,100,0.00,,,0.00,Meteorologica,2013-06-10 05:29:00,
2013-06-10 01:30:00,72.7,72.7,29.99,SW,218,0.0,0.0,100,0.11,,,0.93,Meteorologica,2013-06-10 05:30:00,
2013-06-10 01:31:00,72.7,72.7,29.99,SW,218,0.0,0.0,100,0.11,,,0.93,Meteorologica,2013-06-10 05:31:00,
2013-06-10 01:32:00,72.5,72.5,29.99,SW,218,0.0,0.0,100,0.11,,,0.93,Meteorologica,2013-06-10 05:32:00,
2013-06-10 01:33:00,72.4,72.4,29.99,SW,218,0.0,0.0,100,0.11,,,0.93,Meteorologica,2013-06-10 05:33:00,
2013-06-10 01:34:00,70.6,70.6,30.00,SSW,207,1.7,6.2,100,0.00,,,0.00,Meteorologica,2013-06-10 05:34:00,
2013-06-10 01:35:00,72.2,72.2,29.99,SW,218,0.0,0.0,100,0.11,,,0.93,Meteorologica,2013-06-10 05:35:00,
2013-06-10 01:36:00,72.3,72.3,30.00,SW,218,0.0,0.0,100,0.11,,,0.93,Meteorologica,2013-06-10 05:36:00,
2013-06-10 01:37:00,72.1,72.1,30.00,SW,218,0.0,0.0,100,0.11,,,0.93,Meteorologica,2013-06-10 05:37:00,
2013-06-10 01:38:00,72.1,72.1,30.00,SW,218,0.0,0.0,100,0.11,,,0.93,Meteorologica,2013-06-10 05:38:00,
2013-06-10 01:39:00,70.7,70.7,30.00,SSW,200,3.6,7.9,100,0.00,,,0.00,Meteorologica,2013-06-10 05:39:00,
2013-06-10 01:40:00,72.0,72.0,30.00,SW,218,0.0,0.0,100,0.11,,,0.93,Meteorologica,2013-06-10 05:40:00,
2013-06-10 01:41:00,72.0,72.0,30.00,SW,218,0.0,0.0,100,0.11,,,0.93,Meteorologica,2013-06-10 05:41:00,
2013-06-10 01:42:00,71.9,71.9,30.00,SW,218,0.0,0.0,100,0.11,,,0.93,Meteorologica,2013-06-10 05:42:00,
2013-06-10 01:43:00,71.8,71.8,30.00,SW,218,0.0,0.0,100,0.11,,,0.93,Meteorologica,2013-06-10 05:43:00,
2013-06-10 01:44:00,70.7,70.7,30.00,South,179,3.8,8.3,100,0.00,,,0.00,Meteorologica,2013-06-10 05:44:00,
2013-06-10 01:45:00,71.5,71.5,30.00,SW,218,0.0,0.0,100,0.11,,,0.93,Meteorologica,2013-06-10 05:45:00,
2013-06-10 01:46:00,71.5,71.5,30.00,SW,218,0.0,0.0,100,0.11,,,0.93,Meteorologica,2013-06-10 05:46:00,
2013-06-10 01:47:00,71.5,71.5,30.00,SW,218,0.0,0.0,100,0.11,,,0.93,Meteorologica,2013-06-10 05:47:00,
2013-06-10 01:48:00,71.4,71.4,30.00,SW,218,0.0,0.0,100,0.11,,,0.93,Meteorologica,2013-06-10 05:48:00,
2013-06-10 01:49:00,70.5,70.5,30.00,South,190,2.3,8.6,100,0.00,,,0.00,Meteorologica,2013-06-10 05:49:00,
2013-06-10 01:50:00,71.3,71.3,30.00,SW,218,0.0,0.0,100,0.11,,,0.93,Meteorologica,2013-06-10 05:50:00,
2013-06-10 01:51:00,71.3,71.3,30.00,SW,218,0.0,0.0,100,0.11,,,0.93,Meteorologica,2013-06-10 05:51:00,
2013-06-10 01:52:00,71.2,71.2,30.00,SW,218,0.0,0.0,100,0.11,,,0.93,Meteorologica,2013-06-10 05:52:00,
2013-06-10 01:53:00,71.3,71.3,30.00,SW,218,0.0,0.0,100,0.11,,,0.93,Meteorologica,2013-06-10 05:53:00,
2013-06-10 01:54:00,70.5,70.5,30.00,SSW,203,6.4,10.0,100,0.00,,,0.00,Meteorologica,2013-06-10 05:54:00,
2013-06-10 01:55:00,71.3,71.3,30.00,SW,218,0.0,0.0,100,0.11,,,0.93,Meteorologica,2013-06-10 05:55:00,
2013-06-10 01:56:00,71.2,71.2,30.00,SW,218,0.0,0.0,100,0.11,,,0.93,Meteorologica,2013-06-10 05:56:00,
2013-06-10 01:57:00,71.1,71.1,30.00,SW,218,0.0,0.0,100,0.11,,,0.93,Meteorologica,2013-06-10 05:57:00,
2013-06-10 01:58:00,71.0,71.0,30.00,SW,218,0.0,0.0,100,0.11,,,0.93,Meteorologica,2013-06-10 05:58:00,
2013-06-10 01:59:00,70.5,70.5,30.00,SSW,213,5.2,7.6,100,0.00,,,0.00,Meteorologica,2013-06-10 05:59:00,
2013-06-10 02:04:00,70.6,70.6,30.00,South,187,3.9,9.3,100,0.00,,,0.00,Meteorologica,2013-06-10 06:04:00,
2013-06-10 02:09:00,70.5,70.5,29.99,SW,214,3.5,6.6,100,0.00,,,0.00,Meteorologica,2013-06-10 06:09:00,
2013-06-10 02:14:00,70.4,70.4,29.99,SSW,199,2.3,7.6,100,0.00,,,0.00,Meteorologica,2013-06-10 06:14:00,
2013-06-10 02:19:00,70.5,70.5,29.98,SSW,211,3.1,8.4,100,0.00,,,0.00,Meteorologica,2013-06-10 06:19:00,
2013-06-10 02:24:00,70.6,70.6,29.98,SSW,212,2.2,8.6,100,0.00,,,0.00,Meteorologica,2013-06-10 06:24:00,
2013-06-10 02:29:00,70.5,70.5,29.98,NE,56,2.2,9.4,100,0.00,,,0.00,Meteorologica,2013-06-10 06:29:00,
2013-06-10 02:34:00,70.3,70.3,29.98,South,179,3.8,8.0,100,0.00,,,0.00,Meteorologica,2013-06-10 06:34:00,
2013-06-10 02:39:00,70.2,70.2,29.98,SW,214,2.4,8.8,100,0.00,,,0.00,Meteorologica,2013-06-10 06:39:00,
2013-06-10 02:44:00,70.2,70.2,29.98,SW,215,3.6,9.2,100,0.00,,,0.00,Meteorologica,2013-06-10 06:44:00,
2013-06-10 02:49:00,70.2,70.2,29.98,South,184,1.6,8.1,100,0.00,,,0.00,Meteorologica,2013-06-10 06:49:00,
2013-06-10 02:54:00,70.3,70.3,29.98,SSE,166,1.9,7.6,100,0.01,,,0.01,Meteorologica,2013-06-10 06:54:00,
2013-06-10 02:59:00,70.3,70.3,29.98,SW,222,3.1,6.4,100,0.01,,,0.01,Meteorologica,2013-06-10 06:59:00,
2013-06-10 03:04:00,70.2,70.2,29.97,South,184,2.9,9.7,100,0.01,,,0.01,Meteorologica,2013-06-10 07:04:00,
2013-06-10 03:09:00,70.3,70.3,29.98,South,174,4.4,8.4,100,0.01,,,0.01,Meteorologica,2013-06-10 07:09:00,
2013-06-10 03:14:00,70.1,70.1,29.98,SSW,199,1.7,9.3,100,0.01,,,0.01,Meteorologica,2013-06-10 07:14:00,
2013-06-10 03:19:00,70.2,70.2,29.97,SSW,196,3.0,5.1,100,0.01,,,0.01,Meteorologica,2013-06-10 07:19:00,
2013-06-10 03:24:00,70.0,70.0,29.97,WNW,296,2.7,6.6,100,0.01,,,0.01,Meteorologica,2013-06-10 07:24:00,
2013-06-10 03:29:00,69.8,69.8,29.97,SE,135,4.0,7.0,100,0.01,,,0.01,Meteorologica,2013-06-10 07:29:00,
2013-06-10 03:34:00,70.0,70.0,29.97,SSW,208,2.8,9.1,100,0.01,,,0.01,Meteorologica,2013-06-10 07:34:00,
2013-06-10 03:39:00,69.9,69.9,29.97,SSW,196,3.4,6.6,100,0.01,,,0.01,Meteorologica,2013-06-10 07:39:00,
2013-06-10 03:44:00,69.8,69.8,29.97,West,266,4.4,9.5,100,0.01,,,0.01,Meteorologica,2013-06-10 07:44:00,
2013-06-10 03:49:00,69.9,69.9,29.97,South,189,1.7,10.5,100,0.01,,,0.01,Meteorologica,2013-06-10 07:49:00,
2013-06-10 03:54:00,69.9,69.9,29.96,SSE,150,4.9,7.4,100,0.00,,,0.01,Meteorologica,2013-06-10 07:54:00,
2013-06-10 03:59:00,69.7,69.7,29.96,South,187,4.9,10.4,100,0.00,,,0.01,Meteorologica,2013-06-10 07:59:00,
2013-06-10 04:04:00,69.7,69.7,29.96,South,186,4.3,7.7,100,0.00,,,0.01,Meteorologica,2013-06-10 08:04:00,
2013-06-10 04:09:00,69.7,69.7,29.96,SW,220,1.1,8.2,100,0.00,,,0.01,Meteorologica,2013-06-10 08:09:00,
2013-06-10 04:14:00,69.5,69.5,29.96,SW,224,4.3,7.9,100,0.00,,,0.01,Meteorologica,2013-06-10 08:14:00,
2013-06-10 04:19:00,69.4,69.4,29.97,SSW,196,3.7,9.3,100,0.00,,,0.01,Meteorologica,2013-06-10 08:19:00,
2013-06-10 04:24:00,69.5,69.5,29.97,SSW,211,3.3,11.8,100,0.00,,,0.01,Meteorologica,2013-06-10 08:24:00,
2013-06-10 04:29:00,69.4,69.4,29.97,SW,217,4.2,10.2,100,0.00,,,0.01,Meteorologica,2013-06-10 08:29:00,
2013-06-10 04:34:00,69.5,69.5,29.96,SE,138,2.2,6.3,100,0.00,,,0.01,Meteorologica,2013-06-10 08:34:00,
2013-06-10 04:39:00,69.4,69.4,29.96,SW,221,4.2,9.5,100,0.00,,,0.01,Meteorologica,2013-06-10 08:39:00,
2013-06-10 04:44:00,69.5,69.5,29.96,SSE,166,4.9,9.5,100,0.00,,,0.01,Meteorologica,2013-06-10 08:44:00,
2013-06-10 04:49:00,69.5,69.5,29.96,SSW,194,4.4,9.0,100,0.00,,,0.01,Meteorologica,2013-06-10 08:49:00,
2013-06-10 04:54:00,69.5,69.5,29.96,SE,145,3.1,8.0,100,0.00,,,0.01,Meteorologica,2013-06-10 08:54:00,
2013-06-10 04:59:00,69.3,69.3,29.96,SSW,208,5.2,10.7,100,0.00,,,0.01,Meteorologica,2013-06-10 08:59:00,
2013-06-10 05:05:00,69.4,69.4,29.96,SSE,149,4.5,9.1,100,0.00,,,0.01,Meteorologica,2013-06-10 09:05:00,
2013-06-10 05:10:00,69.3,69.3,29.95,SSW,210,4.8,8.4,100,0.00,,,0.01,Meteorologica,2013-06-10 09:10:00,
2013-06-10 05:15:00,69.4,69.4,29.95,SSW,210,5.2,9.4,100,0.00,,,0.01,Meteorologica,2013-06-10 09:15:00,
2013-06-10 05:20:00,69.1,69.1,29.96,SSE,149,1.8,8.7,100,0.00,,,0.01,Meteorologica,2013-06-10 09:20:00,
2013-06-10 05:25:00,69.2,69.2,29.96,SSE,149,2.6,7.7,100,0.00,,,0.01,Meteorologica,2013-06-10 09:25:00,
2013-06-10 05:30:00,69.1,69.3,29.96,SSW,193,5.7,8.7,100,0.00,,,0.01,Meteorologica,2013-06-10 09:30:00,
2013-06-10 05:35:00,69.1,69.1,29.96,SW,226,3.8,8.4,100,0.00,,,0.01,Meteorologica,2013-06-10 09:35:00,
2013-06-10 05:40:00,69.3,69.3,29.96,SW,220,3.3,8.6,100,0.00,,,0.01,Meteorologica,2013-06-10 09:40:00,
2013-06-10 05:45:00,69.2,69.2,29.97,SSW,206,1.0,8.6,100,0.00,,,0.01,Meteorologica,2013-06-10 09:45:00,
2013-06-10 05:50:00,69.0,69.0,29.97,WSW,239,3.1,8.1,100,0.00,,,0.01,Meteorologica,2013-06-10 09:50:00,
2013-06-10 05:55:00,69.3,69.3,29.97,South,186,1.7,8.1,100,0.00,,,0.01,Meteorologica,2013-06-10 09:55:00,
2013-06-10 06:00:00,69.2,69.2,29.97,SSW,208,3.0,9.7,100,0.00,,,0.01,Meteorologica,2013-06-10 10:00:00,
2013-06-10 06:05:00,69.3,69.3,29.96,SSW,208,3.0,8.2,100,0.00,,,0.01,Meteorologica,2013-06-10 10:05:00,
2013-06-10 06:10:00,69.3,69.3,29.96,SSW,198,3.8,6.4,100,0.00,,,0.01,Meteorologica,2013-06-10 10:10:00,
2013-06-10 06:15:00,69.3,69.3,29.96,SSW,196,6.5,10.2,100,0.00,,,0.01,Meteorologica,2013-06-10 10:15:00,
2013-06-10 06:20:00,69.2,69.2,29.96,South,189,4.6,11.2,100,0.00,,,0.01,Meteorologica,2013-06-10 10:20:00,
2013-06-10 06:25:00,69.4,69.4,29.96,SW,226,3.3,10.4,100,0.00,,,0.01,Meteorologica,2013-06-10 10:25:00,
2013-06-10 06:30:00,69.2,69.2,29.96,SSW,196,6.0,13.5,100,0.02,,,0.03,Meteorologica,2013-06-10 10:30:00,
2013-06-10 06:35:00,69.3,69.3,29.96,SW,214,5.4,13.0,100,0.02,,,0.03,Meteorologica,2013-06-10 10:35:00,
2013-06-10 06:40:00,69.4,69.4,29.96,South,189,4.6,8.7,100,0.03,,,0.04,Meteorologica,2013-06-10 10:40:00,
2013-06-10 06:45:00,69.2,69.2,29.96,SSW,209,2.6,10.3,100,0.05,,,0.06,Meteorologica,2013-06-10 10:45:00,
2013-06-10 06:50:00,69.2,69.2,29.97,SE,124,5.0,9.8,100,0.07,,,0.08,Meteorologica,2013-06-10 10:50:00,
2013-06-10 06:55:00,69.1,69.1,29.97,SW,227,4.3,8.7,100,0.09,,,0.10,Meteorologica,2013-06-10 10:55:00,
2013-06-10 07:00:00,69.2,69.2,29.97,South,182,4.1,9.7,100,0.12,,,0.13,Meteorologica,2013-06-10 11:00:00,
2013-06-10 07:05:00,69.0,69.0,29.97,South,191,4.1,6.9,100,0.18,,,0.19,Meteorologica,2013-06-10 11:05:00,
2013-06-10 07:10:00,69.2,69.2,29.97,SW,232,4.8,7.9,100,0.35,,,0.36,Meteorologica,2013-06-10 11:10:00,
2013-06-10 07:15:00,68.9,68.9,29.96,SW,225,3.2,8.9,100,0.39,,,0.40,Meteorologica,2013-06-10 11:15:00,
2013-06-10 07:20:00,68.9,68.9,29.97,WSW,241,3.8,10.7,100,0.41,,,0.42,Meteorologica,2013-06-10 11:20:00,
2013-06-10 07:25:00,69.0,69.0,29.97,South,191,3.0,9.2,100,0.40,,,0.42,Meteorologica,2013-06-10 11:25:00,
2013-06-10 07:30:00,68.9,68.9,29.97,SW,225,2.4,8.4,100,0.39,,,0.42,Meteorologica,2013-06-10 11:30:00,
2013-06-10 07:35:00,68.8,68.8,29.97,WSW,238,4.6,7.3,100,0.38,,,0.42,Meteorologica,2013-06-10 11:35:00,
2013-06-10 08:00:00,68.6,68.6,29.99,WSW,240,4.2,4.6,100,0.63,,,0.76,Meteorologica,2013-06-10 12:00:00,
2013-06-10 08:05:00,68.6,68.6,29.99,WSW,237,0.5,8.6,100,0.57,,,0.78,Meteorologica,2013-06-10 12:05:00,
2013-06-10 08:10:00,68.4,68.4,29.98,SSW,208,1.1,6.3,100,0.40,,,0.79,Meteorologica,2013-06-10 12:10:00,
2013-06-10 08:15:00,68.5,68.5,29.98,SSW,212,1.0,7.8,100,0.39,,,0.80,Meteorologica,2013-06-10 12:15:00,
2013-06-10 08:20:00,68.4,68.4,29.98,SSW,199,0.9,6.4,100,0.39,,,0.81,Meteorologica,2013-06-10 12:20:00,
2013-06-10 08:25:00,68.3,68.3,29.99,SSW,208,1.2,6.6,100,0.39,,,0.81,Meteorologica,2013-06-10 12:25:00,
2013-06-10 08:30:00,68.1,68.1,29.99,South,184,4.4,6.9,100,0.40,,,0.82,Meteorologica,2013-06-10 12:30:00,
2013-06-10 08:35:00,68.0,68.0,30.00,South,180,0.3,8.4,100,0.40,,,0.82,Meteorologica,2013-06-10 12:35:00,
2013-06-10 08:40:00,67.9,67.9,30.00,South,186,0.2,10.2,100,0.40,,,0.82,Meteorologica,2013-06-10 12:40:00,
2013-06-10 08:45:00,67.9,67.9,29.99,South,182,1.0,6.0,100,0.31,,,0.82,Meteorologica,2013-06-10 12:45:00,
2013-06-10 08:50:00,68.0,68.0,29.99,SW,218,0.3,4.2,100,0.13,,,0.82,Meteorologica,2013-06-10 12:50:00,
2013-06-10 08:55:00,68.1,68.1,29.99,SSW,194,1.2,4.0,100,0.07,,,0.82,Meteorologica,2013-06-10 12:55:00,
2013-06-10 09:00:00,68.1,68.1,29.99,WSW,255,0.3,4.2,100,0.05,,,0.82,Meteorologica,2013-06-10 13:00:00,
2013-06-10 09:05:00,68.2,68.2,30.00,South,170,1.5,6.3,100,0.04,,,0.82,Meteorologica,2013-06-10 13:05:00,
2013-06-10 09:10:00,68.2,68.2,30.00,WSW,241,0.6,4.7,100,0.03,,,0.82,Meteorologica,2013-06-10 13:10:00,
2013-06-10 09:15:00,68.4,68.4,30.01,SW,235,0.9,6.0,100,0.02,,,0.82,Meteorologica,2013-06-10 13:15:00,
2013-06-10 09:20:00,68.2,68.2,30.01,South,176,2.7,4.5,100,0.01,,,0.82,Meteorologica,2013-06-10 13:20:00,
2013-06-10 09:25:00,68.3,68.3,30.01,SSW,192,2.8,9.6,100,0.01,,,0.82,Meteorologica,2013-06-10 13:25:00,
2013-06-10 09:30:00,68.1,68.1,30.01,SW,231,2.0,10.0,100,0.00,,,0.82,Meteorologica,2013-06-10 13:30:00,
2013-06-10 09:35:00,68.1,68.1,30.01,SSW,211,0.7,6.9,100,0.00,,,0.82,Meteorologica,2013-06-10 13:35:00,
2013-06-10 09:40:00,68.2,68.2,30.01,South,171,4.6,4.6,100,0.00,,,0.82,Meteorologica,2013-06-10 13:40:00,
2013-06-10 09:45:00,68.2,68.2,30.01,SSW,192,3.4,9.0,100,0.00,,,0.82,Meteorologica,2013-06-10 13:45:00,
2013-06-10 09:50:00,68.4,68.4,30.01,ESE,122,0.7,8.7,100,0.00,,,0.82,Meteorologica,2013-06-10 13:50:00,
2013-06-10 09:55:00,68.4,68.4,30.01,SSE,165,4.3,9.2,100,0.00,,,0.82,Meteorologica,2013-06-10 13:55:00,
2013-06-10 10:00:00,68.3,68.3,30.01,South,184,1.5,8.7,100,0.00,,,0.82,Meteorologica,2013-06-10 14:00:00,
2013-06-10 10:05:00,68.4,68.4,30.01,South,179,4.0,8.9,100,0.00,,,0.82,Meteorologica,2013-06-10 14:05:00,
2013-06-10 10:10:00,68.5,68.5,30.01,ESE,105,1.1,6.8,100,0.00,,,0.82,Meteorologica,2013-06-10 14:10:00,
2013-06-10 10:15:00,68.6,68.6,30.01,SE,127,1.8,9.4,100,0.00,,,0.82,Meteorologica,2013-06-10 14:15:00,
2013-06-10 10:20:00,68.8,68.8,30.01,East,92,2.9,9.4,100,0.00,,,0.82,Meteorologica,2013-06-10 14:20:00,
2013-06-10 10:25:00,68.8,68.8,30.01,SW,221,3.5,7.1,100,0.00,,,0.82,Meteorologica,2013-06-10 14:25:00,
2013-06-10 10:30:00,69.0,69.0,30.01,SSW,205,3.3,9.6,100,0.00,,,0.82,Meteorologica,2013-06-10 14:30:00,
2013-06-10 10:35:00,69.2,69.2,30.01,SW,225,3.2,8.9,100,0.00,,,0.82,Meteorologica,2013-06-10 14:35:00,
2013-06-10 10:40:00,69.2,69.2,30.01,South,173,3.0,11.2,100,0.00,,,0.82,Meteorologica,2013-06-10 14:40:00,
2013-06-10 10:45:00,69.4,69.4,30.01,South,177,2.3,7.6,100,0.00,,,0.82,Meteorologica,2013-06-10 14:45:00,
2013-06-10 10:50:00,69.4,69.4,30.01,SSW,212,2.4,8.1,100,0.00,,,0.82,Meteorologica,2013-06-10 14:50:00,
2013-06-10 10:56:00,69.6,69.6,30.01,South,175,3.6,6.6,100,0.00,,,0.82,Meteorologica,2013-06-10 14:56:00,
2013-06-10 11:01:00,69.5,69.5,30.01,SE,134,2.7,10.3,100,0.00,,,0.82,Meteorologica,2013-06-10 15:01:00,
2013-06-10 11:06:00,69.7,69.7,30.01,SW,228,4.3,9.1,100,0.00,,,0.82,Meteorologica,2013-06-10 15:06:00,
2013-06-10 11:11:00,69.9,69.9,30.01,SW,230,3.7,10.1,100,0.00,,,0.82,Meteorologica,2013-06-10 15:11:00,
2013-06-10 11:16:00,70.0,70.0,30.01,SSW,205,2.5,11.3,100,0.00,,,0.82,Meteorologica,2013-06-10 15:16:00,
2013-06-10 11:21:00,70.1,70.1,30.01,NE,49,2.0,8.6,100,0.00,,,0.82,Meteorologica,2013-06-10 15:21:00,
2013-06-10 11:26:00,70.2,70.2,30.01,South,183,1.5,7.8,100,0.00,,,0.82,Meteorologica,2013-06-10 15:26:00,
2013-06-10 11:31:00,70.4,70.4,30.02,South,183,4.4,4.8,100,0.00,,,0.82,Meteorologica,2013-06-10 15:31:00,
2013-06-10 11:36:00,70.8,70.8,30.02,ESE,108,1.9,8.6,100,0.00,,,0.82,Meteorologica,2013-06-10 15:36:00,
2013-06-10 11:41:00,71.1,71.1,30.02,East,92,4.0,9.1,100,0.00,,,0.82,Meteorologica,2013-06-10 15:41:00,
2013-06-10 11:46:00,71.6,71.6,30.02,East,96,4.1,10.2,100,0.00,,,0.82,Meteorologica,2013-06-10 15:46:00,
2013-06-10 11:51:00,72.3,72.3,30.02,SSW,206,3.7,8.1,100,0.00,,,0.82,Meteorologica,2013-06-10 15:51:00,
2013-06-10 11:56:00,72.8,72.8,30.02,SW,215,3.8,8.4,100,0.00,,,0.82,Meteorologica,2013-06-10 15:56:00,
2013-06-10 12:01:00,73.7,73.7,30.02,SSW,213,2.1,8.7,100,0.00,,,0.82,Meteorologica,2013-06-10 16:01:00,
2013-06-10 12:06:00,74.5,74.5,30.02,WSW,258,0.5,8.7,100,0.00,,,0.82,Meteorologica,2013-06-10 16:06:00,
2013-06-10 12:11:00,75.2,74.0,30.02,South,169,4.7,10.2,96,0.00,,,0.82,Meteorologica,2013-06-10 16:11:00,
2013-06-10 12:16:00,75.8,71.1,30.02,SSW,207,2.9,9.1,85,0.00,,,0.82,Meteorologica,2013-06-10 16:16:00,
2013-06-10 12:21:00,76.3,69.6,30.02,SW,217,4.4,8.6,79,0.00,,,0.82,Meteorologica,2013-06-10 16:21:00,
2013-06-10 12:27:00,76.8,70.1,30.01,SSW,199,2.9,8.6,79,0.00,,,0.82,Meteorologica,2013-06-10 16:27:00,
2013-06-10 12:32:00,77.3,70.2,30.01,South,189,3.2,6.1,78,0.00,,,0.82,Meteorologica,2013-06-10 16:32:00,
2013-06-10 12:37:00,77.8,70.3,30.01,South,189,3.8,5.5,77,0.00,,,0.82,Meteorologica,2013-06-10 16:37:00,
2013-06-10 12:42:00,78.4,69.3,30.01,SSW,194,2.2,5.9,73,0.00,,,0.82,Meteorologica,2013-06-10 16:42:00,
2013-06-10 12:47:00,78.7,67.4,30.01,WNW,290,1.9,10.0,67,0.00,,,0.82,Meteorologica,2013-06-10 16:47:00,
2013-06-10 12:52:00,79.0,67.4,30.01,SE,145,1.3,8.2,67,0.00,,,0.82,Meteorologica,2013-06-10 16:52:00,
2013-06-10 12:57:00,79.2,68.1,30.02,SSW,203,5.0,7.4,68,0.00,,,0.82,Meteorologica,2013-06-10 16:57:00,
2013-06-10 13:02:00,79.5,68.0,30.02,South,187,4.6,9.3,67,0.00,,,0.82,Meteorologica,2013-06-10 17:02:00,
2013-06-10 13:07:00,79.8,67.4,30.01,SW,215,1.5,8.9,65,0.00,,,0.82,Meteorologica,2013-06-10 17:07:00,
2013-06-10 13:12:00,80.1,67.3,30.01,SSW,204,3.1,7.3,64,0.00,,,0.82,Meteorologica,2013-06-10 17:12:00,
2013-06-10 13:17:00,80.3,66.5,30.01,SSW,204,2.7,10.5,62,0.00,,,0.82,Meteorologica,2013-06-10 17:17:00,
2013-06-10 13:22:00,80.4,66.2,30.01,WSW,241,4.1,9.1,61,0.00,,,0.82,Meteorologica,2013-06-10 17:22:00,
2013-06-10 13:27:00,80.5,65.9,30.01,SW,218,3.6,7.9,60,0.00,,,0.82,Meteorologica,2013-06-10 17:27:00,
2013-06-10 13:32:00,80.7,66.4,30.01,South,190,2.8,7.8,61,0.00,,,0.82,Meteorologica,2013-06-10 17:32:00,
2013-06-10 13:37:00,81.0,65.6,30.01,WSW,257,4.9,9.7,59,0.00,,,0.82,Meteorologica,2013-06-10 17:37:00,
2013-06-10 13:42:00,81.5,67.6,30.01,SE,138,3.0,8.5,62,0.00,,,0.82,Meteorologica,2013-06-10 17:42:00,
2013-06-10 13:47:00,81.4,67.4,30.01,SSW,207,3.8,5.6,62,0.00,,,0.82,Meteorologica,2013-06-10 17:47:00,
2013-06-10 13:52:00,81.8,68.3,30.01,SW,217,1.8,10.5,63,0.00,,,0.82,Meteorologica,2013-06-10 17:52:00,
2013-06-10 13:57:00,82.0,65.2,30.00,SW,221,3.5,5.4,58,0.00,,,0.82,Meteorologica,2013-06-10 17:57:00,
2013-06-10 14:02:00,82.5,66.4,30.00,South,171,5.3,8.7,57,0.00,,,0.82,Meteorologica,2013-06-10 18:02:00,
2013-06-10 14:07:00,82.4,65.2,30.00,South,184,6.3,9.6,55,0.00,,,0.82,Meteorologica,2013-06-10 18:07:00,
2013-06-10 14:12:00,82.7,67.3,30.00,SSE,160,2.3,10.3,59,0.00,,,0.82,Meteorologica,2013-06-10 18:12:00,
2013-06-10 14:17:00,82.9,66.1,30.00,SSE,153,1.0,8.9,56,0.00,,,0.82,Meteorologica,2013-06-10 18:17:00,
2013-06-10 14:22:00,82.5,65.7,30.00,SE,129,2.7,2.7,56,0.00,,,0.82,Meteorologica,2013-06-10 18:22:00,
2013-06-10 14:27:00,82.9,66.8,29.99,SW,214,4.0,6.4,58,0.00,,,0.82,Meteorologica,2013-06-10 18:27:00,
2013-06-10 14:32:00,82.8,64.5,29.99,South,170,5.1,8.2,53,0.00,,,0.82,Meteorologica,2013-06-10 18:32:00,
2013-06-10 14:37:00,83.1,65.4,29.99,SSW,194,2.6,8.6,54,0.00,,,0.82,Meteorologica,2013-06-10 18:37:00,
2013-06-10 14:42:00,83.2,64.4,29.99,SSW,194,2.2,9.4,52,0.00,,,0.82,Meteorologica,2013-06-10 18:42:00,
2013-06-10 14:48:00,83.4,64.5,29.99,East,95,0.8,5.2,52,0.00,,,0.82,Meteorologica,2013-06-10 18:48:00,
2013-06-10 14:53:00,83.3,63.4,29.98,SW,230,1.7,6.4,50,0.00,,,0.82,Meteorologica,2013-06-10 18:53:00,
2013-06-10 14:58:00,83.4,62.4,29.98,South,191,5.1,7.4,49,0.00,,,0.82,Meteorologica,2013-06-10 18:58:00,
2013-06-10 15:03:00,83.4,63.9,29.98,SSE,147,2.0,11.3,51,0.00,,,0.82,Meteorologica,2013-06-10 19:03:00,
2013-06-10 15:08:00,83.3,63.7,29.98,SE,135,4.4,7.0,51,0.00,,,0.82,Meteorologica,2013-06-10 19:08:00,
2013-06-10 15:13:00,83.3,62.7,29.98,SSW,211,2.0,9.7,50,0.00,,,0.82,Meteorologica,2013-06-10 19:13:00,
2013-06-10 15:18:00,83.4,62.8,29.98,SSE,155,5.0,7.0,49,0.00,,,0.82,Meteorologica,2013-06-10 19:18:00,
2013-06-10 15:23:00,83.4,63.5,29.98,North,350,2.6,9.0,51,0.00,,,0.82,Meteorologica,2013-06-10 19:23:00,
2013-06-10 15:28:00,83.7,64.6,29.97,WSW,249,3.1,8.4,52,0.00,,,0.82,Meteorologica,2013-06-10 19:28:00,
2013-06-10 15:33:00,84.1,64.1,29.97,SSE,162,3.2,5.6,50,0.00,,,0.82,Meteorologica,2013-06-10 19:33:00,
2013-06-10 15:38:00,84.3,63.9,29.97,NNW,331,3.5,8.5,50,0.00,,,0.82,Meteorologica,2013-06-10 19:38:00,
2013-06-10 15:43:00,84.4,62.1,29.97,SSE,153,2.1,6.9,47,0.00,,,0.82,Meteorologica,2013-06-10 19:43:00,
2013-06-10 15:48:00,84.6,63.5,29.97,SSW,203,2.6,7.9,49,0.00,,,0.82,Meteorologica,2013-06-10 19:48:00,
2013-06-10 15:53:00,84.6,63.8,29.96,SW,235,1.9,8.1,49,0.00,,,0.82,Meteorologica,2013-06-10 19:53:00,
2013-06-10 15:58:00,84.7,64.0,29.96,SSW,201,4.8,8.9,49,0.00,,,0.82,Meteorologica,2013-06-10 19:58:00,
2013-06-10 16:03:00,84.8,63.4,29.96,SSW,213,4.0,7.3,48,0.00,,,0.82,Meteorologica,2013-06-10 20:03:00,
2013-06-10 16:08:00,84.8,62.7,29.95,South,189,0.6,6.6,48,0.00,,,0.82,Meteorologica,2013-06-10 20:08:00,
2013-06-10 16:13:00,84.7,62.8,29.95,SSW,213,4.1,4.1,48,0.00,,,0.82,Meteorologica,2013-06-10 20:13:00,
2013-06-10 16:18:00,85.0,64.3,29.95,SSW,197,4.7,8.2,49,0.00,,,0.82,Meteorologica,2013-06-10 20:18:00,
2013-06-10 16:23:00,84.9,62.4,29.95,South,188,5.1,7.8,46,0.00,,,0.82,Meteorologica,2013-06-10 20:23:00,
2013-06-10 16:28:00,84.9,62.3,29.94,South,171,3.8,10.1,46,0.00,,,0.82,Meteorologica,2013-06-10 20:28:00,
2013-06-10 16:33:00,84.9,62.6,29.94,South,180,2.5,8.8,47,0.00,,,0.82,Meteorologica,2013-06-10 20:33:00,
2013-06-10 16:38:00,85.1,61.2,29.94,SSW,200,3.4,11.6,44,0.00,,,0.82,Meteorologica,2013-06-10 20:38:00,
2013-06-10 16:43:00,85.3,62.4,29.94,SE,126,4.1,11.2,46,0.00,,,0.82,Meteorologica,2013-06-10 20:43:00,
2013-06-10 16:48:00,85.3,60.4,29.94,SSW,200,4.1,7.6,43,0.00,,,0.82,Meteorologica,2013-06-10 20:48:00,
2013-06-10 16:53:00,85.2,61.9,29.94,SSW,212,4.6,9.1,45,0.00,,,0.82,Meteorologica,2013-06-10 20:53:00,
2013-06-10 16:58:00,85.3,59.8,29.94,South,183,3.5,12.4,42,0.00,,,0.82,Meteorologica,2013-06-10 20:58:00,
2013-06-10 17:03:00,85.2,60.6,29.94,SSW,209,2.6,12.0,43,0.00,,,0.82,Meteorologica,2013-06-10 21:03:00,
2013-06-10 17:08:00,85.4,61.8,29.94,SW,221,3.6,7.4,45,0.00,,,0.82,Meteorologica,2013-06-10 21:08:00,
2013-06-10 17:13:00,85.5,62.7,29.95,SSW,192,4.2,9.5,46,0.00,,,0.82,Meteorologica,2013-06-10 21:13:00,
2013-06-10 17:18:00,85.5,61.6,29.95,SSW,200,3.5,8.2,44,0.00,,,0.82,Meteorologica,2013-06-10 21:18:00,
2013-06-10 17:23:00,85.5,61.4,29.94,South,184,4.7,8.6,44,0.00,,,0.82,Meteorologica,2013-06-10 21:23:00,
2013-06-10 17:28:00,85.5,61.0,29.94,South,180,3.3,9.3,43,0.00,,,0.82,Meteorologica,2013-06-10 21:28:00,
2013-06-10 17:33:00,85.7,61.2,29.94,SW,222,2.4,7.4,43,0.00,,,0.82,Meteorologica,2013-06-10 21:33:00,
2013-06-10 17:38:00,85.8,61.9,29.94,WNW,282,2.8,5.2,45,0.00,,,0.82,Meteorologica,2013-06-10 21:38:00,
2013-06-10 17:44:00,85.7,61.2,29.93,SW,217,4.3,10.1,43,0.00,,,0.82,Meteorologica,2013-06-10 21:44:00,
2013-06-10 17:49:00,85.8,60.1,29.94,SSE,160,3.0,10.2,42,0.00,,,0.82,Meteorologica,2013-06-10 21:49:00,
2013-06-10 17:54:00,85.7,60.8,29.94,WSW,249,5.7,10.5,43,0.00,,,0.82,Meteorologica,2013-06-10 21:54:00,
2013-06-10 17:59:00,85.7,60.5,29.93,SW,223,4.7,10.2,42,0.00,,,0.82,Meteorologica,2013-06-10 21:59:00,
2013-06-10 18:04:00,85.4,60.9,29.93,SW,231,3.4,9.9,43,0.00,,,0.82,Meteorologica,2013-06-10 22:04:00,
2013-06-10 18:09:00,85.2,61.0,29.93,SW,214,3.4,12.3,44,0.00,,,0.82,Meteorologica,2013-06-10 22:09:00,
2013-06-10 18:14:00,84.9,59.7,29.92,SSW,203,5.6,6.0,42,0.00,,,0.82,Meteorologica,2013-06-10 22:14:00,
2013-06-10 18:19:00,84.8,60.8,29.92,SSW,201,3.7,11.0,44,0.00,,,0.82,Meteorologica,2013-06-10 22:19:00,
2013-06-10 18:24:00,84.4,60.3,29.92,SW,232,3.1,11.8,44,0.00,,,0.82,Meteorologica,2013-06-10 22:24:00,
2013-06-10 18:29:00,84.3,61.3,29.92,SSW,210,2.5,8.8,46,0.00,,,0.82,Meteorologica,2013-06-10 22:29:00,
2013-06-10 18:34:00,83.7,61.4,29.93,SW,214,0.3,4.7,47,0.00,,,0.82,Meteorologica,2013-06-10 22:34:00,
2013-06-10 18:39:00,83.3,60.5,29.93,SSW,199,4.6,10.7,46,0.00,,,0.82,Meteorologica,2013-06-10 22:39:00,
2013-06-10 18:44:00,82.8,60.3,29.93,SSW,198,4.0,9.7,46,0.00,,,0.82,Meteorologica,2013-06-10 22:44:00,
2013-06-10 18:49:00,82.5,60.9,29.93,SE,136,1.6,9.6,47,0.00,,,0.82,Meteorologica,2013-06-10 22:49:00,
2013-06-10 18:54:00,82.3,62.0,29.93,South,187,3.2,5.5,49,0.00,,,0.82,Meteorologica,2013-06-10 22:54:00,
2013-06-10 18:59:00,82.0,62.2,29.93,SSW,196,2.0,4.2,50,0.00,,,0.82,Meteorologica,2013-06-10 22:59:00,
2013-06-10 19:04:00,81.5,62.3,29.93,SSW,210,0.4,4.8,52,0.00,,,0.82,Meteorologica,2013-06-10 23:04:00,
2013-06-10 19:09:00,81.4,62.6,29.93,SSE,152,0.0,1.2,52,0.00,,,0.82,Meteorologica,2013-06-10 23:09:00,
2013-06-10 19:14:00,81.1,63.3,29.93,South,191,2.0,5.3,54,0.00,,,0.82,Meteorologica,2013-06-10 23:14:00,
2013-06-10 19:19:00,80.7,63.7,29.93,SSE,165,0.0,3.0,55,0.00,,,0.82,Meteorologica,2013-06-10 23:19:00,
2013-06-10 19:24:00,80.4,64.7,29.93,South,170,0.1,1.6,58,0.00,,,0.82,Meteorologica,2013-06-10 23:24:00,
2013-06-10 19:29:00,80.3,65.4,29.93,SSW,211,0.4,1.1,60,0.00,,,0.82,Meteorologica,2013-06-10 23:29:00,
2013-06-10 19:34:00,80.3,66.2,29.93,WSW,239,1.7,2.3,61,0.00,,,0.82,Meteorologica,2013-06-10 23:34:00,
2013-06-10 19:39:00,80.0,66.3,29.93,South,170,0.0,3.0,62,0.00,,,0.82,Meteorologica,2013-06-10 23:39:00,
2013-06-10 19:44:00,80.0,66.9,29.93,SSW,202,1.4,2.6,63,0.00,,,0.82,Meteorologica,2013-06-10 23:44:00,
2013-06-10 19:50:00,79.8,67.0,29.93,ESE,103,0.1,4.2,64,0.00,,,0.82,Meteorologica,2013-06-10 23:50:00,
2013-06-10 19:55:00,79.7,67.0,29.93,SSW,206,0.3,2.2,64,0.00,,,0.82,Meteorologica,2013-06-10 23:55:00,
2013-06-10 20:00:00,79.3,67.1,29.93,South,187,0.7,3.8,65,0.00,,,0.82,Meteorologica,2013-06-11 00:00:00,
2013-06-10 20:05:00,79.3,67.1,29.93,SW,218,1.2,4.5,65,0.00,,,0.82,Meteorologica,2013-06-11 00:05:00,
2013-06-10 20:10:00,79.1,67.2,29.93,SW,234,1.6,2.4,66,0.00,,,0.82,Meteorologica,2013-06-11 00:10:00,
2013-06-10 20:15:00,79.1,67.4,29.93,SW,218,0.0,2.3,66,0.00,,,0.82,Meteorologica,2013-06-11 00:15:00,
2013-06-10 20:20:00,79.0,67.5,29.93,WSW,239,1.4,2.4,67,0.00,,,0.82,Meteorologica,2013-06-11 00:20:00,
2013-06-10 20:25:00,78.8,67.5,29.94,WSW,239,0.0,3.4,68,0.00,,,0.82,Meteorologica,2013-06-11 00:25:00,
2013-06-10 20:30:00,78.3,67.8,29.94,WSW,239,0.0,0.0,69,0.00,,,0.82,Meteorologica,2013-06-11 00:30:00,
2013-06-10 20:35:00,77.7,66.4,29.94,West,259,1.8,3.2,67,0.00,,,0.82,Meteorologica,2013-06-11 00:35:00,
2013-06-10 20:40:00,77.1,66.5,29.94,West,260,2.0,2.7,69,0.00,,,0.82,Meteorologica,2013-06-11 00:40:00,
2013-06-10 20:45:00,76.5,65.9,29.94,NE,35,0.6,2.5,69,0.00,,,0.82,Meteorologica,2013-06-11 00:45:00,
2013-06-10 20:50:00,76.4,66.1,29.94,NNE,22,0.0,2.8,70,0.00,,,0.82,Meteorologica,2013-06-11 00:50:00,
2013-06-10 20:55:00,76.3,66.8,29.94,NNE,22,0.0,0.0,72,0.00,,,0.82,Meteorologica,2013-06-11 00:55:00,
2013-06-10 21:00:00,76.2,67.4,29.94,SSW,207,1.8,0.0,74,0.00,,,0.82,Meteorologica,2013-06-11 01:00:00,
2013-06-10 21:05:00,76.0,67.1,29.94,SSE,163,0.1,2.7,73,0.00,,,0.82,Meteorologica,2013-06-11 01:05:00,
2013-06-10 21:11:00,75.8,67.1,29.94,SSE,163,0.0,0.3,73,0.00,,,0.82,Meteorologica,2013-06-11 01:11:00,
2013-06-10 21:16:00,75.7,67.5,29.94,SW,215,0.0,1.9,75,0.00,,,0.82,Meteorologica,2013-06-11 01:16:00,
2013-06-10 21:21:00,75.5,67.3,29.95,SSE,160,0.0,1.7,75,0.00,,,0.82,Meteorologica,2013-06-11 01:21:00,
2013-06-10 21:26:00,75.3,67.8,29.94,SSW,193,2.1,2.1,77,0.00,,,0.82,Meteorologica,2013-06-11 01:26:00,
2013-06-10 21:31:00,75.1,68.1,29.94,SSW,194,0.7,3.7,78,0.00,,,0.82,Meteorologica,2013-06-11 01:31:00,
2013-06-10 21:36:00,75.0,68.4,29.95,SW,217,2.0,2.9,79,0.00,,,0.82,Meteorologica,2013-06-11 01:36:00,
2013-06-10 21:41:00,74.7,68.4,29.95,SSW,201,2.5,4.3,80,0.00,,,0.82,Meteorologica,2013-06-11 01:41:00,
2013-06-10 21:46:00,74.6,68.7,29.95,SSW,200,2.6,3.9,81,0.00,,,0.82,Meteorologica,2013-06-11 01:46:00,
2013-06-10 21:51:00,74.6,69.0,29.95,SSW,206,2.8,4.8,82,0.00,,,0.82,Meteorologica,2013-06-11 01:51:00,
2013-06-10 21:56:00,74.6,69.2,29.95,South,188,2.1,4.7,83,0.00,,,0.82,Meteorologica,2013-06-11 01:56:00,
2013-06-10 22:01:00,74.5,69.1,29.95,SW,215,2.0,4.7,83,0.00,,,0.82,Meteorologica,2013-06-11 02:01:00,
2013-06-10 22:07:00,74.6,69.1,29.96,SW,235,2.4,5.6,82,0.00,,,0.82,Meteorologica,2013-06-11 02:07:00,
2013-06-10 22:12:00,74.6,69.3,29.96,SE,141,0.5,6.6,83,0.00,,,0.82,Meteorologica,2013-06-11 02:12:00,
2013-06-10 22:17:00,74.6,69.0,29.96,SSW,210,2.9,5.0,82,0.00,,,0.82,Meteorologica,2013-06-11 02:17:00,
2013-06-10 22:22:00,74.7,69.0,29.96,South,190,4.4,6.6,82,0.00,,,0.82,Meteorologica,2013-06-11 02:22:00,
2013-06-10 22:27:00,74.6,68.7,29.97,South,190,2.4,6.9,81,0.00,,,0.82,Meteorologica,2013-06-11 02:27:00,
2013-06-10 22:32:00,74.7,68.5,29.97,SW,223,3.9,6.9,80,0.00,,,0.82,Meteorologica,2013-06-11 02:32:00,
2013-06-10 22:37:00,74.8,68.4,29.97,SW,217,4.3,7.0,80,0.00,,,0.82,Meteorologica,2013-06-11 02:37:00,
2013-06-10 23:00:00,75.2,68.6,29.98,SW,233,1.8,6.6,79,0.00,,,0.82,Meteorologica,2013-06-11 03:00:00,
2013-06-10 23:05:00,75.2,68.6,29.98,SW,228,2.7,4.8,79,0.00,,,0.82,Meteorologica,2013-06-11 03:05:00,
2013-06-10 23:10:00,75.3,68.7,29.97,SSW,202,1.8,6.5,79,0.00,,,0.82,Meteorologica,2013-06-11 03:10:00,
2013-06-10 23:15:00,75.2,68.6,29.98,SSW,211,2.4,5.5,79,0.00,,,0.82,Meteorologica,2013-06-11 03:15:00,
2013-06-10 23:20:00,75.2,68.7,29.98,SSW,208,1.8,4.9,80,0.00,,,0.82,Meteorologica,2013-06-11 03:20:00,
2013-06-10 23:25:00,75.1,68.6,29.98,SSW,210,3.4,6.5,80,0.00,,,0.82,Meteorologica,2013-06-11 03:25:00,